MBGT

Details ICAO MBGT (GDT)
Name Jags Mccartney Intl
Region Turks and Caicos Islands
Timezone America/Grand_Turk (UTC-4.0)
Plans Departing 23
Arriving 23
Stats Elevation 13 ft / 4 m (AMSL)
Location 21.444530° -71.142325°
Runways 1
Magnetic Variation 11.137° W
Sunrise 2017-12-13 11:15:03 UTC / 2017-12-13 07:15:03 Local
Sunset 2017-12-13 22:05:31 UTC / 2017-12-13 18:05:31 Local
Advertisement - Login to hide

Runways

ID Width Length Bearing (true) Bearing (mag) Surface Threshold Offset Overrun Length
11 151 ft / 46 m 6,363 ft / 1,939 m 104.48° 115.62° Asphalt 797 ft / 243 m 0 ft / 0 m
29 151 ft / 46 m 6,363 ft / 1,939 m 284.49° 295.63° Asphalt 0 ft / 0 m 358 ft / 109 m

Map

Weather


0- 5 10 15 20 25 30 35+ Temperature / ° C

Clouds and Precipitation
Forecast for 2017-12-13 18:00 UTC. Updated 16 minutes ago

Ground ~20,000 ft ~40,000 ft Winds

METAR

Not found

TAF

MBGT 131120Z 1312/1412 32006KT 9999 VCSH FEW016CB SCT018 BKN050 BECMG 1400/1402 02004KT

Frequencies

Ground 121.90 MHz GND
Approach 126.00 MHz PROVO APP
Tower 118.60 MHz MCCARTNEY TWR
Warning: Do not use this data for real-world aviation or navigation. No guarantee of current accuracy is given.